createdAt,value
2022-09-17T00:01:25.076Z,10.10
2022-09-17T00:03:55.565Z,10.10
2022-09-17T00:06:24.579Z,10.10
2022-09-17T00:08:53.360Z,10.10
2022-09-17T00:11:23.433Z,10.00
2022-09-17T00:13:53.866Z,10.00
2022-09-17T00:16:27.514Z,10.00
2022-09-17T00:18:55.356Z,10.00
2022-09-17T00:21:23.816Z,10.00
2022-09-17T00:23:54.903Z,10.00
2022-09-17T00:26:22.801Z,10.00
2022-09-17T00:28:53.082Z,10.00
2022-09-17T00:31:21.027Z,10.00
2022-09-17T00:33:48.979Z,10.00
2022-09-17T00:36:17.135Z,10.00
2022-09-17T00:38:44.824Z,10.00
2022-09-17T00:41:12.551Z,10.00
2022-09-17T00:43:43.470Z,10.00
2022-09-17T00:46:25.323Z,10.00
2022-09-17T00:48:54.643Z,10.00
2022-09-17T00:51:27.604Z,10.00
2022-09-17T00:53:56.784Z,10.00
2022-09-17T00:56:27.678Z,10.00
2022-09-17T00:58:56.487Z,10.00
2022-09-17T01:01:25.615Z,9.90
2022-09-17T01:03:53.369Z,9.90
2022-09-17T01:06:26.890Z,10.00
2022-09-17T01:09:08.268Z,10.00
2022-09-17T01:11:51.785Z,10.00
2022-09-17T01:14:33.723Z,10.00
2022-09-17T01:17:14.808Z,9.90
2022-09-17T01:20:16.544Z,10.00
2022-09-17T01:22:58.105Z,9.90
2022-09-17T01:25:31.123Z,10.00
2022-09-17T01:28:21.821Z,9.90
2022-09-17T01:31:04.390Z,9.90
2022-09-17T01:33:41.754Z,9.90
2022-09-17T01:36:22.450Z,9.90
2022-09-17T01:39:00.078Z,9.90
2022-09-17T01:41:35.249Z,9.90
2022-09-17T01:44:08.669Z,9.90
2022-09-17T01:46:42.645Z,9.90
2022-09-17T01:49:11.762Z,9.90
2022-09-17T01:51:44.703Z,9.90
2022-09-17T01:54:17.638Z,9.90
2022-09-17T01:56:50.740Z,9.90
2022-09-17T01:59:23.646Z,9.90
2022-09-17T02:01:57.782Z,9.90
2022-09-17T02:04:30.048Z,9.90
2022-09-17T02:07:01.413Z,9.90
2022-09-17T02:09:32.847Z,9.90
2022-09-17T02:12:05.705Z,9.90
2022-09-17T02:14:40.711Z,10.00
2022-09-17T02:17:15.573Z,10.00
2022-09-17T02:19:45.692Z,10.00
2022-09-17T02:22:22.230Z,10.00
2022-09-17T02:25:00.686Z,10.00
2022-09-17T02:27:38.036Z,10.00
2022-09-17T02:30:07.700Z,9.90
2022-09-17T02:32:36.755Z,10.00
2022-09-17T02:35:04.960Z,10.00
2022-09-17T02:37:33.010Z,10.00
2022-09-17T02:40:00.917Z,10.00
2022-09-17T02:42:38.707Z,10.00
2022-09-17T02:45:16.355Z,10.00
2022-09-17T02:48:07.816Z,10.00
2022-09-17T02:50:47.207Z,10.00
2022-09-17T02:53:28.661Z,10.00
2022-09-17T02:56:03.797Z,10.00
2022-09-17T02:58:35.253Z,10.00
2022-09-17T03:01:08.075Z,10.00
2022-09-17T03:03:42.313Z,10.00
2022-09-17T03:06:10.222Z,10.00
2022-09-17T03:08:41.276Z,10.00
2022-09-17T03:11:09.926Z,10.00
2022-09-17T03:13:37.674Z,10.00
2022-09-17T03:16:05.872Z,10.00
2022-09-17T03:18:34.019Z,10.00
2022-09-17T03:21:03.088Z,10.00
2022-09-17T03:23:30.794Z,10.00
2022-09-17T03:25:58.546Z,10.00
2022-09-17T03:28:26.713Z,10.00
2022-09-17T03:30:55.002Z,10.00
2022-09-17T03:33:23.054Z,10.00
2022-09-17T03:35:51.148Z,10.00
2022-09-17T03:38:21.825Z,10.00
2022-09-17T03:40:58.921Z,10.00
2022-09-17T03:43:26.814Z,10.00
2022-09-17T03:45:54.564Z,10.00
2022-09-17T03:48:22.279Z,10.00
2022-09-17T03:50:50.239Z,10.00
2022-09-17T03:53:18.140Z,10.00
2022-09-17T03:55:47.177Z,10.00
2022-09-17T03:58:14.882Z,10.00
2022-09-17T04:00:43.461Z,10.00
2022-09-17T04:03:11.173Z,9.90
2022-09-17T04:05:38.873Z,9.90
2022-09-17T04:08:06.589Z,9.90
2022-09-17T04:10:34.270Z,9.90
2022-09-17T04:13:03.310Z,9.90
2022-09-17T04:15:31.022Z,10.00
2022-09-17T04:17:59.265Z,9.90
2022-09-17T04:20:27.494Z,9.90
2022-09-17T04:22:55.763Z,10.00
2022-09-17T04:25:23.578Z,10.00
2022-09-17T04:27:51.335Z,10.00
2022-09-17T04:30:20.442Z,10.00
2022-09-17T04:32:48.173Z,10.00
2022-09-17T04:35:15.978Z,10.00
2022-09-17T04:37:43.704Z,10.00
2022-09-17T04:40:12.185Z,10.00
2022-09-17T04:42:39.912Z,10.00
2022-09-17T04:45:08.314Z,10.00
2022-09-17T04:47:39.544Z,10.00
2022-09-17T04:50:08.429Z,10.00
2022-09-17T04:52:36.138Z,10.00
2022-09-17T04:55:04.382Z,10.00
2022-09-17T04:57:32.060Z,10.00
2022-09-17T04:59:59.759Z,10.00
2022-09-17T05:02:27.505Z,10.00
2022-09-17T05:04:56.971Z,10.00
2022-09-17T05:07:24.752Z,10.00
2022-09-17T05:09:53.281Z,10.00
2022-09-17T05:12:20.990Z,10.00
2022-09-17T05:14:48.718Z,10.00
2022-09-17T05:17:16.437Z,10.00
2022-09-17T05:19:44.222Z,9.90
2022-09-17T05:22:13.241Z,9.90
2022-09-17T05:24:40.913Z,9.90
2022-09-17T05:27:10.102Z,9.90
2022-09-17T05:29:37.937Z,9.90
2022-09-17T05:32:06.389Z,9.90
2022-09-17T05:34:34.602Z,9.90
2022-09-17T05:37:02.322Z,9.90
2022-09-17T05:39:31.345Z,9.80
2022-09-17T05:42:00.074Z,9.90
2022-09-17T05:44:27.766Z,9.90
2022-09-17T05:46:55.536Z,9.90
2022-09-17T05:49:23.255Z,9.90
2022-09-17T05:51:51.795Z,9.90
2022-09-17T05:54:19.605Z,10.00
2022-09-17T05:56:48.684Z,9.90
2022-09-17T05:59:16.423Z,9.90
2022-09-17T06:01:44.154Z,10.00
2022-09-17T06:04:12.839Z,10.00
2022-09-17T06:06:41.557Z,10.00
2022-09-17T06:09:09.949Z,9.90
2022-09-17T06:11:38.271Z,10.00
2022-09-17T06:14:07.373Z,9.90
2022-09-17T06:16:35.121Z,9.90
2022-09-17T06:19:04.047Z,9.90
2022-09-17T06:21:31.761Z,10.00
2022-09-17T06:23:59.716Z,10.00
2022-09-17T06:26:27.391Z,10.10
2022-09-17T06:28:55.089Z,10.10
2022-09-17T06:31:24.135Z,10.10
2022-09-17T06:33:51.842Z,10.20
2022-09-17T06:36:19.552Z,10.20
2022-09-17T06:38:47.262Z,10.20
2022-09-17T06:41:16.823Z,10.30
2022-09-17T06:43:45.015Z,10.30
2022-09-17T06:46:12.954Z,10.30
2022-09-17T06:48:42.078Z,10.30
2022-09-17T06:51:11.816Z,10.40
2022-09-17T06:53:40.299Z,10.30
2022-09-17T06:56:09.336Z,10.40
2022-09-17T06:58:37.988Z,10.40
2022-09-17T07:01:06.401Z,10.40
2022-09-17T07:03:35.145Z,10.40
2022-09-17T07:06:04.588Z,10.40
2022-09-17T07:08:34.312Z,10.40
2022-09-17T07:11:02.221Z,10.40
2022-09-17T07:13:29.944Z,10.40
2022-09-17T07:15:59.083Z,10.40
2022-09-17T07:18:27.903Z,10.40
2022-09-17T07:20:56.447Z,10.40
2022-09-17T07:23:27.583Z,10.40
2022-09-17T07:25:56.326Z,10.40
2022-09-17T07:28:24.452Z,10.40
2022-09-17T07:30:53.288Z,10.40
2022-09-17T07:33:24.367Z,10.50
2022-09-17T07:35:56.061Z,10.50
2022-09-17T07:38:26.571Z,10.50
2022-09-17T07:40:57.957Z,10.50
2022-09-17T07:43:26.519Z,10.50
2022-09-17T07:45:54.844Z,10.50
2022-09-17T07:48:22.758Z,10.50
2022-09-17T07:50:50.536Z,10.50
2022-09-17T07:53:18.377Z,10.50
2022-09-17T07:55:54.364Z,10.50
2022-09-17T07:58:23.000Z,10.60
2022-09-17T08:00:50.818Z,10.70
2022-09-17T08:03:18.533Z,10.80
2022-09-17T08:05:46.403Z,10.90
2022-09-17T08:08:17.662Z,11.00
2022-09-17T08:10:48.170Z,11.10
2022-09-17T08:13:17.257Z,11.20
2022-09-17T08:15:45.029Z,11.30
2022-09-17T08:18:12.793Z,11.40
2022-09-17T08:20:40.909Z,11.40
2022-09-17T08:23:08.608Z,11.40
2022-09-17T08:25:36.297Z,11.50
2022-09-17T08:28:04.213Z,11.50
2022-09-17T08:30:33.218Z,11.50
2022-09-17T08:33:00.910Z,11.60
2022-09-17T08:35:28.620Z,11.60
2022-09-17T08:37:56.678Z,11.70
2022-09-17T08:40:24.527Z,11.80
2022-09-17T08:42:57.641Z,11.90
2022-09-17T08:45:26.322Z,12.00
2022-09-17T08:48:01.988Z,12.10
2022-09-17T08:50:33.658Z,12.20
2022-09-17T08:53:23.407Z,12.20
2022-09-17T08:55:59.760Z,12.40
2022-09-17T08:58:54.701Z,12.40
2022-09-17T09:01:32.269Z,12.50
2022-09-17T09:04:26.785Z,12.50
2022-09-17T09:06:59.287Z,12.40
2022-09-17T09:09:32.562Z,12.40
2022-09-17T09:12:05.709Z,12.40
2022-09-17T09:14:40.329Z,12.40
2022-09-17T09:17:10.900Z,12.50
2022-09-17T09:19:44.938Z,12.40
2022-09-17T09:22:31.175Z,12.40
2022-09-17T09:25:09.351Z,12.40
2022-09-17T09:27:45.057Z,12.50
2022-09-17T09:30:14.742Z,12.50
2022-09-17T09:32:52.549Z,12.50
2022-09-17T09:35:23.500Z,12.60
2022-09-17T09:37:58.573Z,12.50
2022-09-17T09:40:37.146Z,12.50
2022-09-17T09:43:13.527Z,12.50
2022-09-17T09:46:05.957Z,12.50
2022-09-17T09:48:42.499Z,12.50
2022-09-17T09:51:21.087Z,12.50
2022-09-17T09:54:02.665Z,12.60
2022-09-17T09:56:47.002Z,12.60
2022-09-17T09:59:15.044Z,12.60
2022-09-17T10:01:45.119Z,12.50
2022-09-17T10:04:19.068Z,12.60
2022-09-17T10:06:50.317Z,12.70
2022-09-17T10:09:21.436Z,12.90
2022-09-17T10:12:04.038Z,13.00
2022-09-17T10:14:33.402Z,13.20
2022-09-17T10:17:20.615Z,13.30
2022-09-17T10:20:10.287Z,13.40
2022-09-17T10:22:42.400Z,13.40
2022-09-17T10:25:28.330Z,13.50
2022-09-17T10:27:57.333Z,13.60
2022-09-17T10:30:25.897Z,13.90
2022-09-17T10:33:20.690Z,13.90
2022-09-17T10:36:01.161Z,13.90
2022-09-17T10:38:36.358Z,13.80
2022-09-17T10:41:18.650Z,13.90
2022-09-17T10:43:46.991Z,14.00
2022-09-17T10:46:25.198Z,14.00
2022-09-17T10:49:06.250Z,14.10
2022-09-17T10:51:34.061Z,14.00
2022-09-17T10:54:45.457Z,13.90
2022-09-17T10:57:21.827Z,13.90
2022-09-17T11:00:05.188Z,13.90
2022-09-17T11:03:00.615Z,14.00
2022-09-17T11:05:46.076Z,14.10
2022-09-17T11:08:21.273Z,14.30
2022-09-17T11:10:59.278Z,14.50
2022-09-17T11:13:37.825Z,14.70
2022-09-17T11:16:16.328Z,14.90
2022-09-17T11:18:45.507Z,15.00
2022-09-17T11:21:29.500Z,15.20
2022-09-17T11:24:30.687Z,15.30
2022-09-17T11:27:09.571Z,15.50
2022-09-17T11:29:54.754Z,15.60
2022-09-17T11:32:35.778Z,15.60
2022-09-17T11:35:09.754Z,15.60
2022-09-17T11:37:41.150Z,15.60
2022-09-17T11:40:16.697Z,15.70
2022-09-17T11:42:49.383Z,15.90
2022-09-17T11:45:21.167Z,15.90
2022-09-17T11:47:54.202Z,15.80
2022-09-17T11:50:26.786Z,15.70
2022-09-17T11:53:05.599Z,15.60
2022-09-17T11:55:40.814Z,15.40
2022-09-17T11:58:15.762Z,15.30
2022-09-17T12:00:50.295Z,15.10
2022-09-17T12:03:24.576Z,15.10
2022-09-17T12:05:56.198Z,15.10
2022-09-17T12:08:28.686Z,15.20
2022-09-17T12:11:01.971Z,15.20
2022-09-17T12:13:37.400Z,15.30
2022-09-17T12:16:14.442Z,15.50
2022-09-17T12:19:01.934Z,15.80
2022-09-17T12:21:36.188Z,15.90
2022-09-17T12:24:12.810Z,15.70
2022-09-17T12:26:59.695Z,15.40
2022-09-17T12:29:56.000Z,14.90
2022-09-17T12:32:47.974Z,14.30
2022-09-17T12:38:58.413Z,13.60
2022-09-17T12:41:37.524Z,13.40
2022-09-17T12:44:25.450Z,13.40
2022-09-17T12:47:10.122Z,13.50
2022-09-17T12:50:02.410Z,13.70
2022-09-17T12:52:39.475Z,13.70
2022-09-17T12:55:32.099Z,13.80
2022-09-17T12:58:09.065Z,13.90
2022-09-17T13:00:41.483Z,14.10
2022-09-17T13:03:22.279Z,14.10
2022-09-17T13:06:24.625Z,14.20
2022-09-17T13:09:06.063Z,14.30
2022-09-17T13:12:04.559Z,14.30
2022-09-17T13:14:49.197Z,14.30
2022-09-17T13:17:25.701Z,14.20
2022-09-17T13:20:03.516Z,14.00
2022-09-17T13:22:33.529Z,13.80
2022-09-17T13:25:07.249Z,13.70
2022-09-17T13:27:38.141Z,13.60
2022-09-17T13:30:07.368Z,13.50
2022-09-17T13:32:52.281Z,13.40
2022-09-17T13:35:52.389Z,13.30
2022-09-17T13:38:23.887Z,13.40
2022-09-17T13:40:53.154Z,13.50
2022-09-17T13:43:26.509Z,13.60
2022-09-17T13:46:16.924Z,13.80
2022-09-17T13:48:58.672Z,13.90
2022-09-17T13:52:00.762Z,14.00
2022-09-17T13:54:39.575Z,14.00
2022-09-17T13:57:14.857Z,14.00
2022-09-17T13:59:55.126Z,14.00
2022-09-17T14:02:37.139Z,14.10
2022-09-17T14:05:38.043Z,14.10
2022-09-17T14:08:30.888Z,14.10
2022-09-17T14:11:01.074Z,14.10
2022-09-17T14:13:45.847Z,14.20
2022-09-17T14:16:46.758Z,14.30
2022-09-17T14:19:37.763Z,14.30
2022-09-17T14:22:15.901Z,14.40
2022-09-17T14:24:55.449Z,14.40
2022-09-17T14:27:42.785Z,14.60
2022-09-17T14:30:16.587Z,14.70
2022-09-17T14:32:52.679Z,14.70
2022-09-17T14:35:25.221Z,14.70
2022-09-17T14:37:57.962Z,14.60
2022-09-17T14:40:28.191Z,14.30
2022-09-17T14:42:58.239Z,13.80
2022-09-17T14:45:30.362Z,13.40
2022-09-17T14:48:30.818Z,13.00
2022-09-17T14:51:29.441Z,12.60
2022-09-17T14:54:21.447Z,12.10
2022-09-17T14:56:56.815Z,11.90
2022-09-17T14:59:48.974Z,11.70
2022-09-17T15:02:38.556Z,11.60
2022-09-17T15:05:46.628Z,11.60
2022-09-17T15:11:43.601Z,11.70
2022-09-17T15:14:19.462Z,11.70
2022-09-17T15:16:49.944Z,11.70
2022-09-17T15:19:24.595Z,11.70
2022-09-17T15:21:56.023Z,11.80
2022-09-17T15:24:35.074Z,11.80
2022-09-17T15:27:07.727Z,11.80
2022-09-17T15:29:38.710Z,11.90
2022-09-17T15:32:07.416Z,11.90
2022-09-17T15:34:35.257Z,11.90
2022-09-17T15:37:07.474Z,11.80
2022-09-17T15:39:41.542Z,11.80
2022-09-17T15:42:20.370Z,11.80
2022-09-17T15:44:49.613Z,11.80
2022-09-17T15:47:37.703Z,11.80
2022-09-17T15:50:14.383Z,11.80
2022-09-17T15:52:42.507Z,11.70
2022-09-17T15:55:30.203Z,11.70
2022-09-17T15:57:58.782Z,11.70
2022-09-17T16:00:28.259Z,11.70
2022-09-17T16:02:56.094Z,11.60
2022-09-17T16:05:47.629Z,11.60
2022-09-17T16:08:21.146Z,11.60
2022-09-17T16:10:48.900Z,11.60
2022-09-17T16:13:16.616Z,11.60
2022-09-17T16:15:45.882Z,11.60
2022-09-17T16:18:14.789Z,11.60
2022-09-17T16:20:42.723Z,11.50
2022-09-17T16:23:11.074Z,11.50
2022-09-17T16:25:40.300Z,11.50
2022-09-17T16:28:13.391Z,11.50
2022-09-17T16:30:45.909Z,11.50
2022-09-17T16:33:15.377Z,11.50
2022-09-17T16:35:44.012Z,11.50
2022-09-17T16:38:12.788Z,11.50
2022-09-17T16:40:45.214Z,11.50
2022-09-17T16:43:13.126Z,11.50
2022-09-17T16:45:40.894Z,11.50
2022-09-17T16:48:10.317Z,11.60
2022-09-17T16:50:41.107Z,11.60
2022-09-17T16:53:08.824Z,11.60
2022-09-17T16:55:37.487Z,11.50
2022-09-17T16:58:05.321Z,11.50
2022-09-17T17:00:33.080Z,11.50
2022-09-17T17:03:00.943Z,11.50
2022-09-17T17:05:30.018Z,11.50
2022-09-17T17:07:59.182Z,11.40
2022-09-17T17:10:28.950Z,11.30
2022-09-17T17:12:57.797Z,11.30
2022-09-17T17:15:25.773Z,11.30
2022-09-17T17:17:53.846Z,11.30
2022-09-17T17:20:21.590Z,11.20
2022-09-17T17:22:51.650Z,11.20
2022-09-17T17:25:19.490Z,11.20
2022-09-17T17:27:47.199Z,11.10
2022-09-17T17:30:17.199Z,11.10
2022-09-17T17:32:46.144Z,11.00
2022-09-17T17:35:13.866Z,11.00
2022-09-17T17:37:41.571Z,10.90
2022-09-17T17:40:11.562Z,10.90
2022-09-17T17:42:43.627Z,10.80
2022-09-17T17:45:12.208Z,10.80
2022-09-17T17:47:39.954Z,10.80
2022-09-17T17:50:10.432Z,10.80
2022-09-17T17:52:40.208Z,10.70
2022-09-17T17:55:10.288Z,10.70
2022-09-17T17:57:38.374Z,10.70
2022-09-17T18:00:07.355Z,10.60
2022-09-17T18:02:35.318Z,10.60
2022-09-17T18:05:04.478Z,10.60
2022-09-17T18:07:32.526Z,10.50
2022-09-17T18:10:00.354Z,10.50
2022-09-17T18:12:29.528Z,10.50
2022-09-17T18:14:57.208Z,10.40
2022-09-17T18:17:24.982Z,10.40
2022-09-17T18:19:52.672Z,10.40
2022-09-17T18:22:20.393Z,10.30
2022-09-17T18:24:48.123Z,10.30
2022-09-17T18:27:16.162Z,10.30
2022-09-17T18:29:45.256Z,10.30
2022-09-17T18:32:12.975Z,10.20
2022-09-17T18:34:42.324Z,10.20
2022-09-17T18:37:10.858Z,10.20
2022-09-17T18:39:57.934Z,10.20
2022-09-17T18:42:26.327Z,10.10
2022-09-17T18:44:55.389Z,10.10
2022-09-17T18:47:23.128Z,10.10
2022-09-17T18:49:50.809Z,10.10
2022-09-17T18:52:19.137Z,10.00
2022-09-17T18:54:46.934Z,10.00
2022-09-17T18:57:15.006Z,10.00
2022-09-17T18:59:42.783Z,10.00
2022-09-17T19:02:13.370Z,10.00
2022-09-17T19:04:41.111Z,10.00
2022-09-17T19:07:08.851Z,10.00
2022-09-17T19:09:36.566Z,10.00
2022-09-17T19:12:04.529Z,10.00
2022-09-17T19:14:32.410Z,10.00
2022-09-17T19:17:00.177Z,10.00
2022-09-17T19:19:29.234Z,10.00
2022-09-17T19:21:56.984Z,10.10
2022-09-17T19:24:24.772Z,10.10
2022-09-17T19:26:53.382Z,10.10
2022-09-17T19:29:21.099Z,10.10
2022-09-17T19:31:48.983Z,10.10
2022-09-17T19:34:16.750Z,10.10
2022-09-17T19:36:45.917Z,10.10
2022-09-17T19:39:13.828Z,10.20
2022-09-17T19:41:41.517Z,10.20
2022-09-17T19:44:09.838Z,10.20
2022-09-17T19:46:37.611Z,10.20
2022-09-17T19:49:05.408Z,10.20
2022-09-17T19:51:33.779Z,10.20
2022-09-17T19:54:02.824Z,10.20
2022-09-17T19:56:30.605Z,10.30
2022-09-17T19:58:58.350Z,10.30
2022-09-17T20:01:26.299Z,10.30
2022-09-17T20:03:54.125Z,10.30
2022-09-17T20:06:23.311Z,10.30
2022-09-17T20:08:52.426Z,10.30
2022-09-17T20:11:23.530Z,10.30
2022-09-17T20:13:51.573Z,10.30
2022-09-17T20:16:21.182Z,10.30
2022-09-17T20:18:49.855Z,10.30
2022-09-17T20:21:19.509Z,10.30
2022-09-17T20:23:47.359Z,10.40
2022-09-17T20:26:16.403Z,10.40
2022-09-17T20:28:45.695Z,10.40
2022-09-17T20:31:16.557Z,10.40
2022-09-17T20:33:44.682Z,10.40
2022-09-17T20:36:15.828Z,10.40
2022-09-17T20:39:10.740Z,10.40
2022-09-17T20:41:32.529Z,10.40
2022-09-17T20:44:01.747Z,10.40
2022-09-17T20:46:29.938Z,10.50
2022-09-17T20:48:58.661Z,10.50
2022-09-17T20:51:28.325Z,10.50
2022-09-17T20:53:56.952Z,10.50
2022-09-17T20:56:27.082Z,10.50
2022-09-17T20:59:02.821Z,10.50
2022-09-17T21:01:34.404Z,10.50
2022-09-17T21:04:03.840Z,10.50
2022-09-17T21:06:32.964Z,10.50
2022-09-17T21:09:01.297Z,10.50
2022-09-17T21:11:30.817Z,10.50
2022-09-17T21:13:59.856Z,10.50
2022-09-17T21:16:28.075Z,10.50
2022-09-17T21:18:58.949Z,10.50
2022-09-17T21:21:27.189Z,10.50
2022-09-17T21:23:55.185Z,10.50
2022-09-17T21:26:24.790Z,10.50
2022-09-17T21:28:55.039Z,10.50
2022-09-17T21:31:28.392Z,10.50
2022-09-17T21:34:01.999Z,10.50
2022-09-17T21:36:31.866Z,10.50
2022-09-17T21:39:01.769Z,10.50
2022-09-17T21:41:30.104Z,10.50
2022-09-17T21:43:58.669Z,10.50
2022-09-17T21:46:28.021Z,10.50
2022-09-17T21:48:57.994Z,10.50
2022-09-17T21:51:30.445Z,10.50
2022-09-17T21:54:00.446Z,10.50
2022-09-17T21:56:31.103Z,10.50
2022-09-17T21:59:00.071Z,10.50
2022-09-17T22:01:31.035Z,10.50
2022-09-17T22:03:59.309Z,10.50
2022-09-17T22:06:29.990Z,10.50
2022-09-17T22:08:59.924Z,10.50
2022-09-17T22:11:29.816Z,10.50
2022-09-17T22:14:00.616Z,10.50
2022-09-17T22:16:30.644Z,10.40
2022-09-17T22:18:59.513Z,10.40
2022-09-17T22:21:31.132Z,10.40
2022-09-17T22:24:00.661Z,10.40
2022-09-17T22:26:30.435Z,10.40
2022-09-17T22:29:02.880Z,10.40
2022-09-17T22:31:30.709Z,10.40
2022-09-17T22:33:58.655Z,10.40
2022-09-17T22:36:28.926Z,10.40
2022-09-17T22:38:58.214Z,10.40
2022-09-17T22:41:27.563Z,10.40
2022-09-17T22:43:56.817Z,10.30
2022-09-17T22:46:26.750Z,10.40
2022-09-17T22:48:55.117Z,10.40
2022-09-17T22:51:23.202Z,10.30
2022-09-17T22:53:52.339Z,10.30
2022-09-17T22:56:23.152Z,10.30
2022-09-17T22:58:51.067Z,10.30
2022-09-17T23:01:20.638Z,10.30
2022-09-17T23:03:49.562Z,10.30
2022-09-17T23:06:19.854Z,10.30
2022-09-17T23:08:48.074Z,10.30
2022-09-17T23:11:19.748Z,10.30
2022-09-17T23:13:48.049Z,10.30
2022-09-17T23:16:16.312Z,10.30
2022-09-17T23:18:44.220Z,10.30
2022-09-17T23:21:14.190Z,10.30
2022-09-17T23:23:43.294Z,10.30
2022-09-17T23:26:14.343Z,10.30
2022-09-17T23:28:43.569Z,10.30
2022-09-17T23:31:13.176Z,10.30
2022-09-17T23:33:41.058Z,10.30
2022-09-17T23:36:12.667Z,10.30
2022-09-17T23:38:41.298Z,10.30
2022-09-17T23:41:14.620Z,10.30
2022-09-17T23:43:46.203Z,10.30
2022-09-17T23:46:14.101Z,10.30
2022-09-17T23:48:41.940Z,10.30
2022-09-17T23:51:09.656Z,10.30
2022-09-17T23:53:38.199Z,10.30
2022-09-17T23:56:12.107Z,10.30
2022-09-17T23:58:39.917Z,10.30
